createdAt,value
2023-04-15T00:00:26.592Z,9.96
2023-04-15T00:01:26.576Z,9.98
2023-04-15T00:02:26.693Z,9.98
2023-04-15T00:03:26.873Z,9.98
2023-04-15T00:04:26.720Z,9.99
2023-04-15T00:05:26.543Z,9.99
2023-04-15T00:06:26.524Z,9.99
2023-04-15T00:07:26.540Z,10.01
2023-04-15T00:08:26.503Z,10.01
2023-04-15T00:09:26.504Z,10.02
2023-04-15T00:10:26.482Z,10.02
2023-04-15T00:11:26.493Z,10.03
2023-04-15T00:12:26.450Z,10.03
2023-04-15T00:13:26.444Z,10.02
2023-04-15T00:14:26.432Z,9.99
2023-04-15T00:15:26.426Z,9.96
2023-04-15T00:16:26.434Z,9.96
2023-04-15T00:17:26.448Z,9.96
2023-04-15T00:18:26.389Z,9.98
2023-04-15T00:19:26.378Z,9.99
2023-04-15T00:20:26.364Z,9.99
2023-04-15T00:21:26.361Z,9.96
2023-04-15T00:22:26.348Z,9.99
2023-04-15T00:23:26.381Z,9.99
2023-04-15T00:24:26.322Z,10.01
2023-04-15T00:25:26.317Z,9.99
2023-04-15T00:26:26.301Z,9.96
2023-04-15T00:27:26.293Z,9.93
2023-04-15T00:28:26.285Z,9.93
2023-04-15T00:29:26.264Z,9.94
2023-04-15T00:30:26.255Z,9.96
2023-04-15T00:31:26.305Z,9.98
2023-04-15T00:32:26.302Z,9.98
2023-04-15T00:33:26.228Z,9.96
2023-04-15T00:34:26.208Z,9.96
2023-04-15T00:35:26.201Z,9.96
2023-04-15T00:36:26.191Z,9.99
2023-04-15T00:37:26.175Z,10.01
2023-04-15T00:38:26.162Z,10.01
2023-04-15T00:39:26.167Z,10.02
2023-04-15T00:40:26.148Z,10.01
2023-04-15T00:41:26.135Z,10.02
2023-04-15T00:42:26.123Z,10.03
2023-04-15T00:43:26.107Z,10.05
2023-04-15T00:44:26.098Z,10.05
2023-04-15T00:45:26.102Z,10.10
2023-04-15T00:46:26.067Z,10.09
2023-04-15T00:47:26.162Z,10.09
2023-04-15T00:48:26.053Z,10.08
2023-04-15T00:49:26.042Z,10.03
2023-04-15T00:50:26.040Z,10.01
2023-04-15T00:51:26.035Z,9.96
2023-04-15T00:52:26.015Z,9.96
2023-04-15T00:53:26.018Z,9.93
2023-04-15T00:54:25.988Z,9.91
2023-04-15T00:55:26.103Z,9.91
2023-04-15T00:56:25.964Z,9.93
2023-04-15T00:57:25.948Z,9.90
2023-04-15T00:58:25.944Z,9.88
2023-04-15T00:59:25.923Z,9.88
2023-04-15T01:00:25.924Z,9.87
2023-04-15T01:01:25.927Z,9.84
2023-04-15T01:02:26.036Z,9.81
2023-04-15T01:03:26.131Z,9.77
2023-04-15T01:04:25.967Z,9.77
2023-04-15T01:05:25.863Z,9.80
2023-04-15T01:06:25.856Z,9.77
2023-04-15T01:07:25.832Z,9.77
2023-04-15T01:08:25.834Z,9.80
2023-04-15T01:09:25.818Z,9.80
2023-04-15T01:10:25.812Z,9.77
2023-04-15T01:11:25.845Z,9.80
2023-04-15T01:12:25.790Z,9.76
2023-04-15T01:13:25.764Z,9.77
2023-04-15T01:14:25.759Z,9.80
2023-04-15T01:15:25.752Z,9.77
2023-04-15T01:16:25.778Z,9.81
2023-04-15T01:17:25.784Z,9.83
2023-04-15T01:18:25.718Z,9.84
2023-04-15T01:19:25.701Z,9.84
2023-04-15T01:20:25.694Z,9.83
2023-04-15T01:21:25.682Z,9.85
2023-04-15T01:22:25.673Z,9.85
2023-04-15T01:23:25.659Z,9.88
2023-04-15T01:24:25.646Z,9.88
2023-04-15T01:25:25.643Z,9.87
2023-04-15T01:26:25.625Z,9.87
2023-04-15T01:27:25.639Z,9.87
2023-04-15T01:28:25.611Z,9.84
2023-04-15T01:29:25.587Z,9.84
2023-04-15T01:30:25.582Z,9.81
2023-04-15T01:31:25.633Z,9.77
2023-04-15T01:32:25.596Z,9.76
2023-04-15T01:33:25.547Z,9.76
2023-04-15T01:34:25.525Z,9.76
2023-04-15T01:35:25.525Z,9.74
2023-04-15T01:36:25.507Z,9.72
2023-04-15T01:37:25.495Z,9.72
2023-04-15T01:38:25.492Z,9.72
2023-04-15T01:39:25.480Z,9.72
2023-04-15T01:40:25.470Z,9.74
2023-04-15T01:41:25.450Z,9.74
2023-04-15T01:42:25.446Z,9.74
2023-04-15T01:43:25.453Z,9.72
2023-04-15T01:44:25.424Z,9.74
2023-04-15T01:45:25.415Z,9.80
2023-04-15T01:46:25.458Z,9.83
2023-04-15T01:47:25.402Z,9.83
2023-04-15T01:48:25.382Z,9.80
2023-04-15T01:49:25.412Z,9.81
2023-04-15T01:50:25.361Z,9.80
2023-04-15T01:51:25.351Z,9.80
2023-04-15T01:52:25.347Z,9.76
2023-04-15T01:53:25.330Z,9.77
2023-04-15T01:54:25.311Z,9.77
2023-04-15T01:55:25.303Z,9.81
2023-04-15T01:56:25.323Z,9.80
2023-04-15T01:57:25.307Z,9.83
2023-04-15T01:58:25.276Z,9.83
2023-04-15T01:59:25.294Z,9.80
2023-04-15T02:00:25.253Z,9.80
2023-04-15T02:01:25.307Z,9.83
2023-04-15T02:02:25.389Z,9.80
2023-04-15T02:03:25.282Z,9.81
2023-04-15T02:04:25.216Z,9.83
2023-04-15T02:05:25.197Z,9.83
2023-04-15T02:06:25.176Z,9.80
2023-04-15T02:07:25.173Z,9.80
2023-04-15T02:08:25.166Z,9.81
2023-04-15T02:09:25.141Z,9.83
2023-04-15T02:10:25.145Z,9.80
2023-04-15T02:11:25.125Z,9.81
2023-04-15T02:12:25.115Z,9.80
2023-04-15T02:13:25.100Z,9.80
2023-04-15T02:14:25.092Z,9.80
2023-04-15T02:15:25.117Z,9.77
2023-04-15T02:16:25.104Z,9.77
2023-04-15T02:17:25.087Z,9.83
2023-04-15T02:18:25.043Z,9.84
2023-04-15T02:19:25.038Z,9.88
2023-04-15T02:20:25.024Z,9.90
2023-04-15T02:21:25.015Z,9.88
2023-04-15T02:22:24.998Z,9.90
2023-04-15T02:23:25.000Z,9.91
2023-04-15T02:24:24.982Z,9.94
2023-04-15T02:25:24.966Z,9.96
2023-04-15T02:26:24.961Z,9.98
2023-04-15T02:27:24.949Z,9.96
2023-04-15T02:28:24.935Z,9.98
2023-04-15T02:29:24.918Z,9.98
2023-04-15T02:30:24.912Z,9.99
2023-04-15T02:31:24.989Z,9.96
2023-04-15T02:32:25.059Z,9.99
2023-04-15T02:33:24.880Z,9.99
2023-04-15T02:34:24.863Z,9.93
2023-04-15T02:35:24.857Z,9.94
2023-04-15T02:36:24.850Z,9.94
2023-04-15T02:37:24.839Z,9.98
2023-04-15T02:38:24.838Z,9.98
2023-04-15T02:39:24.819Z,9.96
2023-04-15T02:40:24.802Z,9.94
2023-04-15T02:41:24.784Z,9.94
2023-04-15T02:42:24.779Z,9.98
2023-04-15T02:43:24.768Z,9.94
2023-04-15T02:44:24.757Z,9.91
2023-04-15T02:45:24.737Z,9.94
2023-04-15T02:46:24.865Z,9.96
2023-04-15T02:47:24.774Z,9.96
2023-04-15T02:48:24.714Z,9.98
2023-04-15T02:49:24.701Z,9.98
2023-04-15T02:50:24.693Z,9.94
2023-04-15T02:51:24.678Z,9.96
2023-04-15T02:52:24.660Z,9.96
2023-04-15T02:53:24.647Z,9.98
2023-04-15T02:54:24.637Z,9.99
2023-04-15T02:55:24.631Z,9.99
2023-04-15T02:56:24.624Z,9.96
2023-04-15T02:57:24.611Z,9.93
2023-04-15T02:58:24.596Z,9.93
2023-04-15T02:59:24.579Z,9.94
2023-04-15T03:00:24.573Z,9.93
2023-04-15T03:01:24.595Z,9.94
2023-04-15T03:02:24.848Z,9.94
2023-04-15T03:03:24.700Z,9.96
2023-04-15T03:04:24.537Z,9.98
2023-04-15T03:05:24.516Z,9.96
2023-04-15T03:06:24.508Z,9.98
2023-04-15T03:07:24.508Z,9.98
2023-04-15T03:08:24.509Z,9.99
2023-04-15T03:09:24.470Z,9.99
2023-04-15T03:10:24.452Z,9.99
2023-04-15T03:11:24.455Z,10.01
2023-04-15T03:12:24.441Z,9.98
2023-04-15T03:13:24.420Z,9.99
2023-04-15T03:14:24.420Z,10.01
2023-04-15T03:15:24.406Z,9.99
2023-04-15T03:16:24.392Z,10.01
2023-04-15T03:17:24.391Z,10.03
2023-04-15T03:18:24.373Z,10.05
2023-04-15T03:19:24.376Z,10.06
2023-04-15T03:20:24.379Z,10.09
2023-04-15T03:21:24.337Z,10.10
2023-04-15T03:22:24.326Z,10.10
2023-04-15T03:23:24.314Z,10.10
2023-04-15T03:24:24.304Z,10.12
2023-04-15T03:25:24.291Z,10.10
2023-04-15T03:26:24.275Z,10.12
2023-04-15T03:27:24.274Z,10.12
2023-04-15T03:28:24.264Z,10.10
2023-04-15T03:29:24.239Z,10.09
2023-04-15T03:30:24.233Z,10.10
2023-04-15T03:31:24.300Z,10.10
2023-04-15T03:32:24.242Z,10.10
2023-04-15T03:33:24.211Z,10.10
2023-04-15T03:34:24.193Z,10.14
2023-04-15T03:35:24.206Z,10.12
2023-04-15T03:36:24.183Z,10.16
2023-04-15T03:37:24.158Z,10.17
2023-04-15T03:38:24.142Z,10.18
2023-04-15T03:39:24.138Z,10.18
2023-04-15T03:40:24.121Z,10.21
2023-04-15T03:41:24.129Z,10.21
2023-04-15T03:42:24.097Z,10.21
2023-04-15T03:43:24.091Z,10.21
2023-04-15T03:44:24.080Z,10.21
2023-04-15T03:45:24.072Z,10.21
2023-04-15T03:46:24.110Z,10.21
2023-04-15T03:47:24.081Z,10.21
2023-04-15T03:48:24.097Z,10.21
2023-04-15T03:49:24.026Z,10.21
2023-04-15T03:50:24.015Z,10.23
2023-04-15T03:51:24.027Z,10.23
2023-04-15T03:52:23.990Z,10.24
2023-04-15T03:53:23.996Z,10.23
2023-04-15T03:54:23.975Z,10.21
2023-04-15T03:55:23.951Z,10.23
2023-04-15T03:56:23.945Z,10.23
2023-04-15T03:57:25.928Z,10.21
2023-04-15T03:58:23.933Z,10.23
2023-04-15T03:59:23.910Z,10.24
2023-04-15T04:00:23.920Z,10.24
2023-04-15T04:01:23.892Z,10.23
2023-04-15T04:02:24.076Z,10.24
2023-04-15T04:03:24.153Z,10.27
2023-04-15T04:04:23.929Z,10.27
2023-04-15T04:05:23.839Z,10.26
2023-04-15T04:06:23.829Z,10.26
2023-04-15T04:07:23.844Z,10.28
2023-04-15T04:08:23.810Z,10.30
2023-04-15T04:09:23.799Z,10.28
2023-04-15T04:10:23.790Z,10.31
2023-04-15T04:11:23.776Z,10.31
2023-04-15T04:12:23.770Z,10.31
2023-04-15T04:13:23.757Z,10.34
2023-04-15T04:14:25.738Z,10.36
2023-04-15T04:15:25.762Z,10.35
2023-04-15T04:16:23.784Z,10.38
2023-04-15T04:17:23.711Z,10.36
2023-04-15T04:18:25.714Z,10.36
2023-04-15T04:19:23.681Z,10.35
2023-04-15T04:20:23.678Z,10.35
2023-04-15T04:21:23.657Z,10.35
2023-04-15T04:22:23.652Z,10.34
2023-04-15T04:23:23.673Z,10.34
2023-04-15T04:24:23.636Z,10.35
2023-04-15T04:25:25.614Z,10.34
2023-04-15T04:26:23.609Z,10.35
2023-04-15T04:27:23.587Z,10.35
2023-04-15T04:28:25.590Z,10.35
2023-04-15T04:29:23.588Z,10.36
2023-04-15T04:30:23.563Z,10.35
2023-04-15T04:31:23.603Z,10.38
2023-04-15T04:32:23.551Z,10.38
2023-04-15T04:33:23.524Z,10.39
2023-04-15T04:34:23.531Z,10.39
2023-04-15T04:35:23.511Z,10.39
2023-04-15T04:36:25.497Z,10.42
2023-04-15T04:37:23.477Z,10.43
2023-04-15T04:38:23.463Z,10.45
2023-04-15T04:39:25.480Z,10.45
2023-04-15T04:40:23.455Z,10.46
2023-04-15T04:41:23.437Z,10.48
2023-04-15T04:42:23.419Z,10.46
2023-04-15T04:43:23.407Z,10.48
2023-04-15T04:44:23.398Z,10.48
2023-04-15T04:45:23.394Z,10.49
2023-04-15T04:46:23.566Z,10.49
2023-04-15T04:47:23.399Z,10.51
2023-04-15T04:48:25.356Z,10.49
2023-04-15T04:49:23.359Z,10.51
2023-04-15T04:50:23.355Z,10.51
2023-04-15T04:51:23.320Z,10.53
2023-04-15T04:52:23.321Z,10.54
2023-04-15T04:53:23.300Z,10.56
2023-04-15T04:54:23.289Z,10.56
2023-04-15T04:55:23.294Z,10.57
2023-04-15T04:56:23.265Z,10.54
2023-04-15T04:57:23.268Z,10.56
2023-04-15T04:58:23.243Z,10.56
2023-04-15T04:59:23.226Z,10.56
2023-04-15T05:00:23.220Z,10.57
2023-04-15T05:01:23.261Z,10.60
2023-04-15T05:02:23.336Z,10.60
2023-04-15T05:03:23.391Z,10.61
2023-04-15T05:04:23.173Z,10.63
2023-04-15T05:05:23.160Z,10.63
2023-04-15T05:06:23.165Z,10.64
2023-04-15T05:07:23.138Z,10.66
2023-04-15T05:08:23.129Z,10.67
2023-04-15T05:09:23.140Z,10.66
2023-04-15T05:10:23.106Z,10.67
2023-04-15T05:11:23.134Z,10.69
2023-04-15T05:12:23.087Z,10.69
2023-04-15T05:13:23.070Z,10.71
2023-04-15T05:14:23.504Z,10.71
2023-04-15T05:15:23.066Z,10.72
2023-04-15T05:16:23.236Z,10.72
2023-04-15T05:17:23.115Z,10.72
2023-04-15T05:18:23.022Z,10.74
2023-04-15T05:19:23.001Z,10.74
2023-04-15T05:20:23.005Z,10.74
2023-04-15T05:21:22.992Z,10.74
2023-04-15T05:22:22.981Z,10.75
2023-04-15T05:23:22.966Z,10.74
2023-04-15T05:24:22.962Z,10.75
2023-04-15T05:25:22.944Z,10.75
2023-04-15T05:26:22.938Z,10.77
2023-04-15T05:27:22.941Z,10.77
2023-04-15T05:28:22.902Z,10.78
2023-04-15T05:29:22.900Z,10.78
2023-04-15T05:30:22.884Z,10.81
2023-04-15T05:31:22.932Z,10.79
2023-04-15T05:32:22.907Z,10.81
2023-04-15T05:33:22.861Z,10.82
2023-04-15T05:34:22.847Z,10.84
2023-04-15T05:35:22.832Z,10.85
2023-04-15T05:36:22.815Z,10.82
2023-04-15T05:37:22.832Z,10.85
2023-04-15T05:38:22.803Z,10.86
2023-04-15T05:39:22.801Z,10.89
2023-04-15T05:40:22.783Z,10.90
2023-04-15T05:41:22.768Z,10.92
2023-04-15T05:42:22.746Z,10.93
2023-04-15T05:43:22.763Z,10.92
2023-04-15T05:44:22.740Z,10.93
2023-04-15T05:45:22.717Z,10.94
2023-04-15T05:46:22.740Z,10.97
2023-04-15T05:47:22.712Z,10.99
2023-04-15T05:48:22.684Z,11.00
2023-04-15T05:49:22.671Z,11.02
2023-04-15T05:50:22.658Z,11.02
2023-04-15T05:51:22.654Z,11.04
2023-04-15T05:52:22.641Z,11.08
2023-04-15T05:53:22.644Z,11.08
2023-04-15T05:54:22.615Z,11.10
2023-04-15T05:55:22.608Z,11.11
2023-04-15T05:56:22.588Z,11.14
2023-04-15T05:57:22.578Z,11.14
2023-04-15T05:58:22.589Z,11.15
2023-04-15T05:59:22.600Z,11.18
2023-04-15T06:00:22.570Z,11.22
2023-04-15T06:01:22.558Z,11.23
2023-04-15T06:02:22.678Z,11.27
2023-04-15T06:03:22.567Z,11.28
2023-04-15T06:04:22.566Z,11.31
2023-04-15T06:05:22.494Z,11.31
2023-04-15T06:06:22.490Z,11.34
2023-04-15T06:07:22.473Z,11.33
2023-04-15T06:08:22.485Z,11.34
2023-04-15T06:09:22.444Z,11.36
2023-04-15T06:10:22.449Z,11.37
2023-04-15T06:11:22.424Z,11.41
2023-04-15T06:12:22.421Z,11.41
2023-04-15T06:13:22.401Z,11.43
2023-04-15T06:14:22.413Z,11.43
2023-04-15T06:15:22.417Z,11.43
2023-04-15T06:16:22.368Z,11.43
2023-04-15T06:17:22.396Z,11.46
2023-04-15T06:18:22.355Z,11.49
2023-04-15T06:19:22.326Z,11.52
2023-04-15T06:20:22.330Z,11.54
2023-04-15T06:21:22.306Z,11.55
2023-04-15T06:22:22.294Z,11.56
2023-04-15T06:23:22.291Z,11.56
2023-04-15T06:24:22.283Z,11.58
2023-04-15T06:25:22.278Z,11.62
2023-04-15T06:26:22.250Z,11.62
2023-04-15T06:27:22.255Z,11.66
2023-04-15T06:28:22.229Z,11.67
2023-04-15T06:29:22.227Z,11.67
2023-04-15T06:30:23.977Z,11.71
2023-04-15T06:31:22.260Z,11.73
2023-04-15T06:32:22.212Z,11.76
2023-04-15T06:33:22.177Z,11.77
2023-04-15T06:34:22.166Z,11.80
2023-04-15T06:35:22.168Z,11.82
2023-04-15T06:36:22.147Z,11.87
2023-04-15T06:37:22.156Z,11.91
2023-04-15T06:38:22.136Z,11.92
2023-04-15T06:39:22.102Z,11.95
2023-04-15T06:40:22.097Z,11.96
2023-04-15T06:41:22.085Z,11.99
2023-04-15T06:42:22.070Z,11.99
2023-04-15T06:43:22.056Z,12.03
2023-04-15T06:44:22.050Z,12.04
2023-04-15T06:45:22.047Z,12.09
2023-04-15T06:46:22.128Z,12.09
2023-04-15T06:47:22.084Z,12.14
2023-04-15T06:48:22.005Z,12.20
2023-04-15T06:49:22.002Z,12.25
2023-04-15T06:50:21.974Z,12.29
2023-04-15T06:51:21.976Z,12.35
2023-04-15T06:52:21.958Z,12.43
2023-04-15T06:53:21.941Z,12.46
2023-04-15T06:54:21.934Z,12.50
2023-04-15T06:55:21.923Z,12.57
2023-04-15T06:56:21.915Z,12.60
2023-04-15T06:57:21.902Z,12.69
2023-04-15T06:58:21.892Z,12.80
2023-04-15T06:59:21.874Z,12.90
2023-04-15T07:00:21.863Z,12.98
2023-04-15T07:01:21.887Z,13.09
2023-04-15T07:02:21.926Z,13.20
2023-04-15T07:03:21.873Z,13.34
2023-04-15T07:04:21.847Z,13.44
2023-04-15T07:05:21.808Z,13.46
2023-04-15T07:06:21.802Z,13.54
2023-04-15T07:07:21.785Z,13.57
2023-04-15T07:08:21.787Z,13.56
2023-04-15T07:09:21.766Z,13.57
2023-04-15T07:10:22.236Z,13.57
2023-04-15T07:11:21.740Z,13.56
2023-04-15T07:12:21.729Z,13.57
2023-04-15T07:13:21.711Z,13.53
2023-04-15T07:14:21.759Z,13.52
2023-04-15T07:15:21.692Z,13.53
2023-04-15T07:16:21.726Z,13.50
2023-04-15T07:17:21.744Z,13.46
2023-04-15T07:18:21.668Z,13.46
2023-04-15T07:19:21.678Z,13.48
2023-04-15T07:20:21.642Z,13.44
2023-04-15T07:21:21.632Z,13.42
2023-04-15T07:22:21.617Z,13.42
2023-04-15T07:23:21.610Z,13.37
2023-04-15T07:24:21.588Z,13.29
2023-04-15T07:25:21.583Z,13.27
2023-04-15T07:26:21.585Z,13.30
2023-04-15T07:27:21.560Z,13.30
2023-04-15T07:28:21.551Z,13.32
2023-04-15T07:29:21.543Z,13.34
2023-04-15T07:30:21.519Z,13.37
2023-04-15T07:31:21.544Z,13.39
2023-04-15T07:32:21.548Z,13.41
2023-04-15T07:33:21.484Z,13.38
2023-04-15T07:34:21.497Z,13.34
2023-04-15T07:35:21.493Z,13.34
2023-04-15T07:36:21.451Z,13.35
2023-04-15T07:37:21.442Z,13.35
2023-04-15T07:38:21.440Z,13.24
2023-04-15T07:39:21.420Z,13.05
2023-04-15T07:40:21.418Z,12.98
2023-04-15T07:41:21.403Z,12.96
2023-04-15T07:42:21.396Z,12.95
2023-04-15T07:43:21.397Z,12.99
2023-04-15T07:44:21.368Z,12.99
2023-04-15T07:45:21.372Z,12.99
2023-04-15T07:46:21.407Z,12.98
2023-04-15T07:47:21.524Z,12.96
2023-04-15T07:48:21.339Z,12.91
2023-04-15T07:49:21.364Z,12.88
2023-04-15T07:50:21.311Z,12.87
2023-04-15T07:51:21.319Z,12.81
2023-04-15T07:52:21.288Z,12.81
2023-04-15T07:53:21.261Z,12.73
2023-04-15T07:54:21.252Z,12.65
2023-04-15T07:55:21.257Z,12.68
2023-04-15T07:56:21.228Z,12.66
2023-04-15T07:57:21.216Z,12.68
2023-04-15T07:58:21.210Z,12.72
2023-04-15T07:59:21.205Z,12.76
2023-04-15T08:00:21.182Z,12.80
2023-04-15T08:01:21.191Z,12.80
2023-04-15T08:02:21.377Z,12.81
2023-04-15T08:03:21.185Z,12.86
2023-04-15T08:04:21.214Z,12.87
2023-04-15T08:05:21.332Z,12.86
2023-04-15T08:06:21.122Z,12.80
2023-04-15T08:07:21.128Z,12.77
2023-04-15T08:08:21.095Z,12.76
2023-04-15T08:09:21.083Z,12.73
2023-04-15T08:10:21.070Z,12.73
2023-04-15T08:11:21.057Z,12.76
2023-04-15T08:12:21.052Z,12.80
2023-04-15T08:13:21.053Z,12.73
2023-04-15T08:14:21.023Z,12.77
2023-04-15T08:15:21.024Z,12.79
2023-04-15T08:16:21.049Z,12.83
2023-04-15T08:17:21.004Z,12.81
2023-04-15T08:18:20.982Z,12.83
2023-04-15T08:19:20.967Z,12.86
2023-04-15T08:20:21.028Z,12.86
2023-04-15T08:21:20.944Z,12.83
2023-04-15T08:22:22.269Z,12.84
2023-04-15T08:23:20.958Z,12.84
2023-04-15T08:24:20.910Z,12.84
2023-04-15T08:25:20.901Z,12.83
2023-04-15T08:26:20.901Z,12.83
2023-04-15T08:27:20.881Z,12.86
2023-04-15T08:28:20.862Z,12.87
2023-04-15T08:29:20.854Z,12.90
2023-04-15T08:30:20.873Z,12.95
2023-04-15T08:31:20.885Z,12.95
2023-04-15T08:32:20.844Z,12.93
2023-04-15T08:33:20.812Z,12.96
2023-04-15T08:34:20.851Z,12.99
2023-04-15T08:35:20.783Z,12.99
2023-04-15T08:36:20.775Z,13.02
2023-04-15T08:37:20.759Z,13.04
2023-04-15T08:38:20.749Z,13.05
2023-04-15T08:39:20.774Z,13.06
2023-04-15T08:40:20.721Z,13.08
2023-04-15T08:41:20.726Z,13.11
2023-04-15T08:42:20.706Z,13.11
2023-04-15T08:43:20.695Z,13.11
2023-04-15T08:44:20.678Z,13.11
2023-04-15T08:45:20.674Z,13.13
2023-04-15T08:46:20.697Z,13.14
2023-04-15T08:47:20.678Z,13.17
2023-04-15T08:48:20.633Z,13.14
2023-04-15T08:49:20.628Z,13.13
2023-04-15T08:50:20.624Z,13.13
2023-04-15T08:51:20.749Z,13.14
2023-04-15T08:52:20.584Z,13.14
2023-04-15T08:53:20.576Z,13.11
2023-04-15T08:54:20.575Z,13.06
2023-04-15T08:55:20.585Z,13.04
2023-04-15T08:56:20.606Z,13.04
2023-04-15T08:57:20.539Z,13.02
2023-04-15T08:58:20.532Z,12.98
2023-04-15T08:59:20.527Z,12.96
2023-04-15T09:00:20.505Z,12.93
2023-04-15T09:01:20.524Z,12.96
2023-04-15T09:02:20.584Z,12.99
2023-04-15T09:03:20.528Z,13.02
2023-04-15T09:04:20.503Z,13.04
2023-04-15T09:05:20.452Z,13.09
2023-04-15T09:06:20.429Z,13.11
2023-04-15T09:07:20.423Z,13.14
2023-04-15T09:08:20.453Z,13.14
2023-04-15T09:09:20.403Z,13.16
2023-04-15T09:10:20.393Z,13.20
2023-04-15T09:11:20.468Z,13.19
2023-04-15T09:12:20.363Z,13.19
2023-04-15T09:13:20.357Z,13.20
2023-04-15T09:14:20.346Z,13.20
2023-04-15T09:15:20.333Z,13.23
2023-04-15T09:16:20.377Z,13.26
2023-04-15T09:17:20.335Z,13.27
2023-04-15T09:18:20.296Z,13.27
2023-04-15T09:19:20.290Z,13.26
2023-04-15T09:20:20.283Z,13.24
2023-04-15T09:21:20.267Z,13.26
2023-04-15T09:22:20.259Z,13.30
2023-04-15T09:23:20.255Z,13.34
2023-04-15T09:24:20.234Z,13.35
2023-04-15T09:25:20.231Z,13.38
2023-04-15T09:26:20.210Z,13.39
2023-04-15T09:27:20.218Z,13.39
2023-04-15T09:28:20.186Z,13.41
2023-04-15T09:29:20.181Z,13.37
2023-04-15T09:30:20.161Z,13.39
2023-04-15T09:31:20.187Z,13.35
2023-04-15T09:32:20.144Z,13.35
2023-04-15T09:33:20.133Z,13.35
2023-04-15T09:34:20.165Z,13.34
2023-04-15T09:35:20.113Z,13.38
2023-04-15T09:36:20.095Z,13.38
2023-04-15T09:37:31.719Z,13.39
2023-04-15T09:38:20.076Z,13.42
2023-04-15T09:39:20.071Z,13.44
2023-04-15T09:40:20.048Z,13.44
2023-04-15T09:41:20.044Z,13.44
2023-04-15T09:42:20.030Z,13.41
2023-04-15T09:43:20.046Z,13.38
2023-04-15T09:44:20.000Z,13.37
2023-04-15T09:45:19.995Z,13.35
2023-04-15T09:46:20.022Z,13.37
2023-04-15T09:47:19.996Z,13.35
2023-04-15T09:48:19.964Z,13.37
2023-04-15T09:49:19.976Z,13.39
2023-04-15T09:50:19.935Z,13.38
2023-04-15T09:51:19.923Z,13.38
2023-04-15T09:52:19.911Z,13.42
2023-04-15T09:53:19.903Z,13.45
2023-04-15T09:54:19.904Z,13.45
2023-04-15T09:55:19.881Z,13.46
2023-04-15T09:56:19.877Z,13.44
2023-04-15T09:57:19.864Z,13.41
2023-04-15T09:58:19.856Z,13.41
2023-04-15T09:59:20.189Z,13.42
2023-04-15T10:00:19.836Z,13.44
2023-04-15T10:01:19.892Z,13.44
2023-04-15T10:02:20.007Z,13.42
2023-04-15T10:03:19.914Z,13.44
2023-04-15T10:04:19.868Z,13.44
2023-04-15T10:05:19.771Z,13.46
2023-04-15T10:06:19.768Z,13.46
2023-04-15T10:07:19.755Z,13.46
2023-04-15T10:08:19.743Z,13.45
2023-04-15T10:09:19.743Z,13.44
2023-04-15T10:10:19.717Z,13.44
2023-04-15T10:11:19.709Z,13.45
2023-04-15T10:12:19.700Z,13.45
2023-04-15T10:13:19.682Z,13.45
2023-04-15T10:14:19.670Z,13.45
2023-04-15T10:15:19.687Z,13.45
2023-04-15T10:16:19.739Z,13.39
2023-04-15T10:17:19.642Z,13.35
2023-04-15T10:18:19.630Z,13.35
2023-04-15T10:19:19.622Z,13.35
2023-04-15T10:20:19.607Z,13.34
2023-04-15T10:21:19.602Z,13.35
2023-04-15T10:22:19.600Z,13.38
2023-04-15T10:23:19.581Z,13.35
2023-04-15T10:24:19.572Z,13.37
2023-04-15T10:25:19.555Z,13.39
2023-04-15T10:26:19.558Z,13.39
2023-04-15T10:27:19.539Z,13.44
2023-04-15T10:28:19.515Z,13.42
2023-04-15T10:29:19.513Z,13.44
2023-04-15T10:30:19.496Z,13.44
2023-04-15T10:31:19.572Z,13.42
2023-04-15T10:32:19.503Z,13.44
2023-04-15T10:33:19.463Z,13.46
2023-04-15T10:34:19.459Z,13.45
2023-04-15T10:35:19.444Z,13.48
2023-04-15T10:36:19.431Z,13.50
2023-04-15T10:37:19.414Z,13.48
2023-04-15T10:38:19.405Z,13.52
2023-04-15T10:39:19.391Z,13.54
2023-04-15T10:40:19.379Z,13.57
2023-04-15T10:41:20.496Z,13.56
2023-04-15T10:42:19.373Z,13.56
2023-04-15T10:43:19.346Z,13.57
2023-04-15T10:44:19.342Z,13.57
2023-04-15T10:45:19.323Z,13.60
2023-04-15T10:46:19.347Z,13.63
2023-04-15T10:47:19.326Z,13.66
2023-04-15T10:48:19.298Z,13.70
2023-04-15T10:49:19.290Z,13.71
2023-04-15T10:50:19.275Z,13.74
2023-04-15T10:51:19.264Z,13.78
2023-04-15T10:52:19.269Z,13.82
2023-04-15T10:53:20.830Z,13.85
2023-04-15T10:54:19.229Z,13.85
2023-04-15T10:55:19.224Z,13.89
2023-04-15T10:56:19.203Z,13.92
2023-04-15T10:57:19.197Z,13.92
2023-04-15T10:58:19.180Z,13.92
2023-04-15T10:59:20.383Z,13.95
2023-04-15T11:00:19.162Z,13.93
2023-04-15T11:01:19.228Z,13.95
2023-04-15T11:02:19.286Z,13.97
2023-04-15T11:03:19.292Z,13.97
2023-04-15T11:04:19.186Z,13.99
2023-04-15T11:05:19.105Z,13.99
2023-04-15T11:06:19.099Z,13.96
2023-04-15T11:07:19.086Z,13.95
2023-04-15T11:08:19.068Z,13.92
2023-04-15T11:09:19.055Z,13.84
2023-04-15T11:10:19.040Z,13.79
2023-04-15T11:11:19.032Z,13.78
2023-04-15T11:12:19.040Z,13.78
2023-04-15T11:13:19.006Z,13.78
2023-04-15T11:14:18.999Z,13.77
2023-04-15T11:15:18.985Z,13.74
2023-04-15T11:16:19.000Z,13.70
2023-04-15T11:17:18.963Z,13.66
2023-04-15T11:18:18.966Z,13.64
2023-04-15T11:19:18.977Z,13.64
2023-04-15T11:20:18.937Z,13.64
2023-04-15T11:21:18.926Z,13.66
2023-04-15T11:22:18.919Z,13.64
2023-04-15T11:23:18.911Z,13.62
2023-04-15T11:24:18.897Z,13.64
2023-04-15T11:25:18.878Z,13.62
2023-04-15T11:26:18.885Z,13.62
2023-04-15T11:27:18.851Z,13.59
2023-04-15T11:28:18.848Z,13.59
2023-04-15T11:29:18.843Z,13.59
2023-04-15T11:30:18.818Z,13.57
2023-04-15T11:31:18.861Z,13.60
2023-04-15T11:32:18.934Z,13.57
2023-04-15T11:33:18.875Z,13.54
2023-04-15T11:34:18.778Z,13.54
2023-04-15T11:35:18.797Z,13.54
2023-04-15T11:36:18.757Z,13.57
2023-04-15T11:37:18.745Z,13.62
2023-04-15T11:38:18.735Z,13.62
2023-04-15T11:39:18.723Z,13.62
2023-04-15T11:40:18.719Z,13.63
2023-04-15T11:41:18.691Z,13.63
2023-04-15T11:42:18.728Z,13.60
2023-04-15T11:43:18.721Z,13.56
2023-04-15T11:44:18.661Z,13.56
2023-04-15T11:45:18.670Z,13.56
2023-04-15T11:46:18.690Z,13.54
2023-04-15T11:47:18.653Z,13.56
2023-04-15T11:48:18.628Z,13.60
2023-04-15T11:49:18.608Z,13.62
2023-04-15T11:50:18.610Z,13.62
2023-04-15T11:51:18.617Z,13.62
2023-04-15T11:52:18.583Z,13.66
2023-04-15T11:53:18.565Z,13.67
2023-04-15T11:54:18.563Z,13.70
2023-04-15T11:55:18.553Z,13.70
2023-04-15T11:56:18.536Z,13.71
2023-04-15T11:57:18.534Z,13.71
2023-04-15T11:58:18.523Z,13.72
2023-04-15T11:59:18.502Z,13.70
2023-04-15T12:00:18.492Z,13.70
2023-04-15T12:01:18.478Z,13.66
2023-04-15T12:02:18.641Z,13.67
2023-04-15T12:03:18.694Z,13.64
2023-04-15T12:04:20.045Z,13.64
2023-04-15T12:05:18.585Z,13.66
2023-04-15T12:06:18.420Z,13.64
2023-04-15T12:07:18.445Z,13.66
2023-04-15T12:08:18.408Z,13.66
2023-04-15T12:09:18.403Z,13.64
2023-04-15T12:10:18.396Z,13.64
2023-04-15T12:11:18.360Z,13.64
2023-04-15T12:12:18.346Z,13.64
2023-04-15T12:13:18.345Z,13.63
2023-04-15T12:14:18.335Z,13.66
2023-04-15T12:15:18.323Z,13.71
2023-04-15T12:16:18.427Z,13.74
2023-04-15T12:17:18.324Z,13.71
2023-04-15T12:18:18.477Z,13.74
2023-04-15T12:19:18.270Z,13.77
2023-04-15T12:20:18.266Z,13.79
2023-04-15T12:21:18.244Z,13.82
2023-04-15T12:22:18.328Z,13.84
2023-04-15T12:23:18.247Z,13.85
2023-04-15T12:24:18.215Z,13.89
2023-04-15T12:25:18.220Z,13.90
2023-04-15T12:26:18.188Z,13.90
2023-04-15T12:27:18.188Z,13.90
2023-04-15T12:28:18.191Z,13.90
2023-04-15T12:29:18.153Z,13.92
2023-04-15T12:30:18.158Z,13.92
2023-04-15T12:31:18.164Z,13.93
2023-04-15T12:32:18.189Z,13.93
2023-04-15T12:33:18.117Z,13.97
2023-04-15T12:34:18.101Z,13.97
2023-04-15T12:35:18.096Z,13.99
2023-04-15T12:36:18.085Z,13.97
2023-04-15T12:37:18.088Z,13.99
2023-04-15T12:38:18.070Z,13.97
2023-04-15T12:39:18.068Z,13.96
2023-04-15T12:40:18.033Z,13.97
2023-04-15T12:41:18.028Z,13.96
2023-04-15T12:42:18.023Z,13.99
2023-04-15T12:43:18.011Z,13.97
2023-04-15T12:44:17.987Z,14.00
2023-04-15T12:45:17.978Z,14.04
2023-04-15T12:46:18.050Z,14.11
2023-04-15T12:47:17.994Z,14.12
2023-04-15T12:48:17.945Z,14.15
2023-04-15T12:49:17.943Z,14.18
2023-04-15T12:50:17.933Z,14.19
2023-04-15T12:51:17.935Z,14.19
2023-04-15T12:52:17.900Z,14.16
2023-04-15T12:53:17.919Z,14.16
2023-04-15T12:54:17.896Z,14.15
2023-04-15T12:55:17.889Z,14.15
2023-04-15T12:56:17.858Z,14.12
2023-04-15T12:57:17.851Z,14.11
2023-04-15T12:58:17.830Z,14.09